Accueil
METAR-TAF:

METAR-TAF

Aéroports :

Aéroport de La Réunion Roland-Garros

Saint-Denis, Réunion

latitude: 20-53S, longitude: 055-31E, altitude: 21 m

Observation

Le bulletin a été fait il y a 17 minutes, à 17:00 UTC
Vent 8 kt de est/sud-est
Température 25°C
Humidité 83%
Pression 1014 hPa
Visibilité 10 km ou plus
Quelques nuages à une hauteur de 4900 ft

METAR: FMEE 211700Z AUTO 11008KT 9999 FEW049 25/22 Q1014 NOSIG

Heure: 21:17 (17:17 UTC)

Prévision

Le bulletin a été fait il y a 6 heures et 17 minutes, à 11:00 UTC
Prévision valable du 21 à 12 UTC au 22 à 18 UTC
Vent 5 kt de nord
Visibilité 10 km ou plus
Quelques nuages à une hauteur de 2500 ft
Evoluant progressivement
du 21 à 16 UTC au 21 à 18 UTC
Vent 5 kt de sud
Evoluant progressivement
du 22 à 06 UTC au 22 à 09 UTC
Vent 10 kt de nord

TAF: FMEE 211100Z 2112/2218 01005KT 9999 FEW025 BECMG 2116/2118 17005KT BECMG 2206/2209 35010KT

Observations et prévisions météorologiques de plus de 4000 aéroports (messages METAR et TAF).

Les stations disponibles sont représentées par des disques jaunes et rouges sur la carte.

Passer la souris dessus pour voir le nom de la station.

Cliquer dessus pour voir les observations et prévisions météorologiques.

Pour changer de carte: cliquez sur les boutons verts avec une croix noire pour zoomer, sur le bouton vert avec un tiret pour effectuer un zoom arrière, ou sur les flèches vertes pour les cartes adjacentes.


METAR-TAF: